Landels-Hill Big Creek Reserve Entrance, California Weather observations

Data are for 10 minute period ending at time listed.
 Day   Time   Solar   Ave.   Ave.  Ave.  Vector  Max.   Baro.   Total    
  of    of     Rad.   Air    Rel.  Wind   Wind   Wind  Press.  Precip.   
Year   Day            Temp.  Hum.  Speed  Dir.   Gust                    
2016   (PST)  Kw/m2    F      %     mph   deg.    mph    mb.     in.     
-------------------------------------------------------------------------
 179   10:50   0.84   57.8    75    2.9   247     6.4   1011.1    0.00 
 179   11:00   0.85   57.8    75    3.2   264     6.7   1010.9    0.00 
 179   11:10   0.86   57.1    77    3.4   263     6.5   1010.9    0.00 
 179   11:20   0.87   57.4    76    3.4   269     6.5   1010.8    0.00 
 179   11:30   0.88   57.5    76    3.3   249     7.5   1010.8    0.00 
 179   11:40   0.89   58.0    75    3.1   258     6.1   1010.7    0.00 
 179   11:50   0.89   57.9    75    3.9   250     8.8   1010.7    0.00 
 179   12:00   0.89   57.8    74    4.4   254     8.0   1010.7    0.00 
 179   12:10   0.90   58.0    75    3.0   249     5.6   1010.6    0.00 
 179   12:20   0.90   58.5    74    2.9   235     6.4   1010.6    0.00 
 179   12:30   0.91   59.7    71    2.2   220     5.6   1010.5    0.00 
 179   12:40   0.91   60.3    69    2.5   223     5.4   1010.3    0.00 
 179   12:50   0.91   59.6    71    2.7   245     5.7   1010.2    0.00 
 179   13:00   0.90   60.0    70    2.5   248     6.4   1010.1    0.00 
 179   13:10   0.89   59.7    72    1.8   242     5.1   1010.2    0.00 
 179   13:20   0.89   61.8    67    1.9   201     4.4   1010.1    0.00 
 179   13:30   0.88   60.3    70    2.6   249     5.4   1009.9    0.00 
 179   13:40   0.86   60.2    71    2.2   234     5.0   1009.8    0.00 
 179   13:50   0.85   60.3    71    2.9   272     5.8   1009.7    0.00 
 179   14:00   0.84   59.7    73    2.4   255     5.1   1009.6    0.00 
 179   14:10   0.83   59.9    72    2.4   255     5.1   1009.6    0.00 
 179   14:20   0.81   60.7    70    2.5   220     5.0   1009.6    0.00 
 179   14:30   0.79   60.0    72    2.5   218     5.2   1009.7    0.00 
 179   14:40   0.78   59.7    73    2.9   214     5.0   1009.6    0.00 
 179   14:50   0.75   59.3    74    2.4   209     4.9   1009.6    0.00 
 179   15:00   0.74   61.0    70    2.3   223     4.5   1009.6    0.00 
 179   15:10   0.71   61.5    69    2.1   218     4.2   1009.5    0.00 
 179   15:20   0.69   61.3    69    2.5   236     5.0   1009.4    0.00 
 179   15:30   0.67   60.6    71    2.2   229     5.8   1009.3    0.00 
 179   15:40   0.64   61.0    70    2.1   253     4.7   1009.2    0.00 
 179   15:50   0.61   62.2    66    2.5   222     5.6   1009.1    0.00 
 179   16:00   0.58   60.8    70    2.6   234     5.6   1009.0    0.00 
 179   16:10   0.56   61.5    68    2.9   236     5.4   1009.0    0.00 
 179   16:20   0.53   60.8    70    2.2   248     5.0   1009.0    0.00 
 179   16:30   0.50   62.3    66    2.7   224     5.0   1008.7    0.00 
 179   16:40   0.47   61.3    68    3.6   246     8.0   1008.7    0.00 
 179   16:50   0.44   61.6    68    2.1   242     5.5   1008.6    0.00 
 179   17:00   0.41   62.4    66    2.4   235     5.0   1008.5    0.00 
 179   17:10   0.38   62.1    67    1.6   233     4.6   1008.5    0.00 
 179   17:20   0.35   61.8    67    2.4   254     5.3   1008.5    0.00 
 179   17:30   0.23   59.7    71    2.6   258     5.7   1008.5    0.00 
 179   17:40   0.05   58.5    74    2.3   269     6.4   1008.2    0.00 
 179   17:50   0.05   58.4    75    1.5   257     3.6   1007.9    0.00 
 179   18:00   0.04   58.4    75    0.4   247     2.7   1007.6    0.00 
 179   18:10   0.04   58.5    75    0.4   235     2.1   1007.6    0.00 
 179   18:20   0.03   58.4    75    0.3   192     3.2   1007.7    0.00 
 179   18:30   0.03   58.4    76    0.1   258     0.9   1007.8    0.00 
 179   18:40   0.03   58.4    76    0.0   255     0.1   1007.7    0.00 
 179   18:50   0.03   58.5    75    0.4   249     2.3   1007.7    0.00 
 179   19:00   0.02   58.1    76    0.5   284     2.0   1007.7    0.00 
 179   19:10   0.01   58.0    77    0.3   314     1.5   1007.8    0.00 
 179   19:20   0.01   57.8    77    0.3   356     1.5   1007.9    0.00 
 179   19:30   0.01   57.7    78    0.2     7     1.2   1008.0    0.00 
 179   19:40   0.01   57.5    79    0.1    33     1.0   1008.0    0.00 
 179   19:50   0.01   57.3    80    0.4   360     2.2   1008.1    0.00 
 179   20:00   0.00   57.0    81    0.4    21     2.0   1008.2    0.00 
 179   20:10   0.00   57.0    81    0.1    27     1.0   1008.3    0.00 
 179   20:20   0.01   56.7    82    0.2   356     1.5   1008.4    0.00 
 179   20:30   0.01   56.6    82    0.5     2     2.0   1008.5    0.00 
 179   20:40   0.01   56.5    83    0.6   358     2.0   1008.6    0.00 
 179   20:50   0.00   56.5    82    0.9   312     2.8   1008.8    0.00 
 179   21:00   0.00   56.9    79    0.5   349     3.2   1009.0    0.00 
 179   21:10   0.00   56.9    78    0.9    15     2.2   1009.0    0.00 
 179   21:20   0.00   56.9    79    1.0    66     3.0   1009.2    0.00 
 179   21:30   0.00   57.0    78    0.5    24     1.8   1009.3    0.00 
 179   21:40   0.00   56.8    79    0.4   354     2.0   1009.5    0.00 
 179   21:50   0.00   56.2    81    0.6    11     1.5   1009.5    0.00 
 179   22:00   0.00   56.1    81    0.6     2     2.1   1009.6    0.00 
 179   22:10   0.00   55.9    81    0.3     4     1.7   1009.6    0.00 
 179   22:20   0.00   55.7    82    0.6    96     2.1   1009.6    0.00 
 179   22:30   0.00   55.7    82    0.6     6     3.1   1009.6    0.00 
 179   22:40   0.00   55.6    82    1.5    44     3.5   1009.5    0.00 
 179   22:50   0.00   56.1    81    1.4    51     3.7   1009.5    0.00 
 179   23:00   0.00   56.2    81    0.9    42     2.7   1009.3    0.00 
 179   23:10   0.00   56.3    81    1.6    50     3.1   1009.2    0.00 
 179   23:20   0.00   56.5    80    1.4    92     4.2   1009.0    0.00 
 179   23:30   0.00   56.8    79    0.6   251     2.6   1009.0    0.00 
 179   23:40   0.00   56.7    80    0.7    57     2.9   1009.1    0.00 
 179   23:50   0.00   56.7    80    1.5     8     3.4   1009.1    0.00 
 180    0:00   0.00   56.6    81    1.2    41     3.1   1009.2    0.00 
 180    0:10   0.00   56.4    82    0.8    54     2.6   1009.3    0.00 
 180    0:20   0.00   56.0    82    0.6   351     2.1   1009.4    0.00 
 180    0:30   0.00   55.6    84    0.8     6     2.0   1009.5    0.00 
 180    0:40   0.00   55.5    85    0.9   358     1.8   1009.5    0.00 
 180    0:50   0.00   55.4    85    0.7    21     3.1   1009.4    0.00 
 180    1:00   0.00   55.3    85    0.1    15     0.9   1009.2    0.00 
 180    1:10   0.00   54.9    85    0.0     0     0.0   1009.0    0.00 
 180    1:20   0.00   54.5    85    0.0     0     0.0   1008.9    0.00 
 180    1:30   0.00   54.2    85    0.0    41     0.4   1009.1    0.00 
 180    1:40   0.00   54.0    86    0.0     0     0.0   1009.3    0.00 
 180    1:50   0.00   53.9    86    0.7    28     2.3   1009.4    0.00 
 180    2:00   0.00   54.4    87    0.9    54     2.6   1009.4    0.00 
 180    2:10   0.00   54.5    86    0.0   348     0.1   1009.5    0.00 
 180    2:20   0.00   54.1    86    0.1    25     0.7   1009.5    0.00 
 180    2:30   0.00   53.9    87    0.3    26     1.2   1009.4    0.00 
 180    2:40   0.00   53.9    87    0.1   319     1.2   1009.4    0.00 
 180    2:50   0.00   53.6    88    0.6    20     2.3   1009.3    0.00 
 180    3:00   0.01   54.0    88    0.7    40     2.4   1009.2    0.00 
 180    3:10   0.00   54.0    88    0.5    29     1.8   1009.2    0.00 
 180    3:20   0.00   54.1    88    0.2   203     1.5   1009.2    0.00 
 180    3:30   0.00   53.5    88    0.1   254     0.9   1009.2    0.00 
 180    3:40   0.00   53.1    88    0.0   197     0.2   1009.4    0.00 
 180    3:50   0.00   52.9    88    0.1   354     1.9   1009.5    0.00 
 180    4:00   0.00   53.0    89    1.4    17     3.0   1009.5    0.00 
 180    4:10   0.00   53.4    89    0.1    54     1.5   1009.6    0.00 
 180    4:20   0.00   53.0    88    0.0   196     0.2   1009.7    0.00 
 180    4:30   0.00   52.5    89    0.0     0     0.0   1009.7    0.00 
 180    4:40   0.00   52.3    89    0.0     0     0.0   1009.8    0.00 
 180    4:50   0.01   52.3    89    0.1    10     0.9   1009.8    0.00 
 180    5:00   0.01   52.3    90    0.1   356     1.1   1009.8    0.00 
 180    5:10   0.01   52.4    90    0.3   354     1.3   1009.9    0.00 
 180    5:20   0.01   52.5    90    0.0     0     0.0   1010.0    0.00 
 180    5:30   0.01   52.5    90    0.2     2     1.6   1010.1    0.00 
 180    5:40   0.01   53.0    90    0.1    22     1.2   1010.1    0.00 
 180    5:50   0.03   53.2    90    0.0   258     0.5   1010.2    0.00 
 180    6:00   0.03   53.2    90    0.3   340     1.0   1010.3    0.00 
 180    6:10   0.03   53.5    90    0.3     1     2.3   1010.4    0.00 
 180    6:20   0.03   53.5    89    0.1   250     2.3   1010.4    0.00 
 180    6:30   0.03   53.2    89    0.0   274     0.7   1010.5    0.00 
 180    6:40   0.03   53.2    89    0.1   164     1.1   1010.7    0.00 
 180    6:50   0.03   53.3    89    0.0   260     0.7   1010.8    0.00 
 180    7:00   0.04   53.3    89    0.1   260     1.1   1010.9    0.00 
 180    7:10   0.04   53.4    89    0.0    96     0.9   1011.1    0.00 
 180    7:20   0.04   53.4    89    0.3   300     2.1   1011.2    0.00 
 180    7:30   0.04   53.6    88    0.5   316     2.1   1011.3    0.00 
 180    7:40   0.04   53.6    88    0.4   266     2.3   1011.5    0.00 
 180    7:50   0.05   53.6    88    0.6   272     3.5   1011.6    0.00 
 180    8:00   0.05   53.7    88    0.1   198     1.1   1011.6    0.00 
 180    8:10   0.05   53.7    88    0.7   162     2.6   1011.7    0.00 
 180    8:20   0.05   53.5    88    0.8   131     2.5   1011.8    0.00 
 180    8:30   0.05   53.7    88    0.9   144     3.2   1011.7    0.00 
 180    8:40   0.06   53.9    88    1.1   166     3.1   1011.6    0.00 
 180    8:50   0.07   53.8    87    2.4   141     3.9   1011.7    0.00 
 180    9:00   0.21   53.8    88    2.1   149     3.9   1011.8    0.00 
 180    9:10   0.55   55.2    86    1.7   203     3.3   1011.7    0.00 
 180    9:20   0.61   56.9    80    1.8   198     3.5   1011.4    0.00 
 180    9:30   0.65   57.4    79    2.2   161     5.1   1011.4    0.00 
 180    9:40   0.67   57.6    78    2.3   170     5.3   1011.6    0.00 
 180    9:50   0.70   57.8    77    2.1   182     4.3   1011.7    0.00 
 180   10:00   0.72   59.4    74    2.0   177     4.6   1011.7    0.00 
 180   10:10   0.74   59.1    74    2.3   176     5.2   1011.8    0.00 
 180   10:20   0.76   59.8    73    2.1   173     5.2   1011.8    0.00 
 180   10:30   0.78   60.5    72    2.0   212     4.8   1011.8    0.00 
 180   10:40   0.80   61.0    70    2.4   214     6.1   1011.9    0.00 

Return to Big Creek Reserve Entrance graphs page.


Western Regional Climate Center,wrcc@dri.edu